Terminal Aerodrome Forecast
Issued by NWS

Home | Current Version | Previous Version | Text Only | Print | Product List | Glossary On
Versions: 1 2 3 4 5 6 7 8 9 10 11 12 13 14 15 16 17 18 19 20 21 22 23 24 25 26 27 28
000
FTAK31 PANC 230547
TAFATK
TAF
PATK 230547Z 2306/2406 02004KT 2SM -SN OVC025
      TEMPO 2306/2310 1SM -SN OVC015
     FM231000 01004KT 1SM -SN OVC015
     FM232100 01003KT 3SM -SN OVC020
     FM240300 01005KT P6SM SCT020 BKN040=

USA.gov is the U.S. government's official web portal to all federal, state and local government web resources and services.